Time;durP1;ratioP1;P1;durP2;ratioP2;P2;SDS_P1;SDS_P2;PMS_P1;PMS_P2;Temp;Humidity;BMP_temperature;BMP_pressure;BME280_temperature;BME280_humidity;BME280_pressure;Samples;Min_cycle;Max_cycle;Signal;HPM_P1;HPM_P2
2023/05/25 00:00:52;;;;;;;7.50;2.45;;;10.70;89.60;;;;;;4904123;29;20051;-73
2023/05/25 05:02:11;;;;;;;9.75;3.67;;;10.30;96.00;;;;;;5549346;23;20052;-73
2023/05/25 05:04:38;;;;;;;11.07;3.88;;;10.40;95.70;;;;;;4912568;29;20032;-71
2023/05/25 05:07:07;;;;;;;;;;;10.40;95.90;;;;;;4896197;29;20056;-71
2023/05/25 05:09:33;;;;;;;10.65;4.13;;;10.50;95.80;;;;;;4912958;29;19914;-69
2023/05/25 05:12:00;;;;;;;13.10;3.95;;;10.60;95.70;;;;;;4928485;29;20028;-71
2023/05/25 05:14:27;;;;;;;7.93;3.53;;;10.60;95.50;;;;;;4913070;29;20033;-70
2023/05/25 05:16:52;;;;;;;13.25;4.38;;;10.60;95.40;;;;;;4895071;29;20028;-76
2023/05/25 05:19:18;;;;;;;8.20;3.67;;;10.70;95.40;;;;;;4914730;29;20054;-70
2023/05/25 05:21:44;;;;;;;12.35;4.15;;;10.70;95.40;;;;;;4893587;29;20119;-70
2023/05/25 05:24:11;;;;;;;20.98;4.80;;;10.70;95.30;;;;;;4892777;29;20035;-70
2023/05/25 05:26:38;;;;;;;13.07;3.88;;;10.90;95.70;;;;;;4909965;29;20036;-71
2023/05/25 05:29:04;;;;;;;15.35;4.13;;;11.00;95.20;;;;;;4882487;29;20043;-70
2023/05/25 05:31:30;;;;;;;11.70;4.13;;;11.00;95.00;;;;;;4893163;29;20032;-70
2023/05/25 05:33:56;;;;;;;10.63;3.80;;;11.10;94.80;;;;;;4910126;29;20040;-69
2023/05/25 05:36:22;;;;;;;9.48;3.92;;;11.20;94.70;;;;;;4901481;29;20040;-69
2023/05/25 05:38:49;;;;;;;15.32;4.30;;;11.30;94.70;;;;;;4893276;29;20247;-71
2023/05/25 05:41:14;;;;;;;10.98;3.88;;;11.40;94.40;;;;;;4892805;29;20028;-70
2023/05/25 05:43:46;;;;;;;10.85;3.55;;;11.50;94.50;;;;;;4899870;29;20063;-70
2023/05/25 05:46:12;;;;;;;12.75;4.28;;;11.60;94.30;;;;;;4911156;29;20032;-70
2023/05/25 05:48:39;;;;;;;11.02;4.25;;;11.70;94.30;;;;;;4908841;29;20028;-69
2023/05/25 05:51:05;;;;;;;9.60;4.00;;;11.80;94.10;;;;;;4905168;29;20085;-70
2023/05/25 05:53:34;;;;;;;10.18;3.85;;;11.80;93.80;;;;;;4910200;29;20132;-69
2023/05/25 05:56:01;;;;;;;12.68;3.85;;;11.80;94.00;;;;;;4908203;29;20027;-69
2023/05/25 05:58:28;;;;;;;14.82;3.92;;;12.00;93.80;;;;;;4926353;29;20167;-69
2023/05/25 06:00:55;;;;;;;11.63;4.15;;;12.10;93.50;;;;;;4911712;29;20111;-70
2023/05/25 06:03:26;;;;;;;12.80;4.15;;;12.20;93.30;;;;;;4900524;29;20059;-70
2023/05/25 06:05:52;;;;;;;11.32;4.13;;;12.50;93.30;;;;;;4895518;29;20300;-70
2023/05/25 06:08:18;;;;;;;14.10;4.03;;;12.70;92.80;;;;;;4873518;29;20056;-71
2023/05/25 06:10:44;;;;;;;13.10;4.07;;;13.00;92.20;;;;;;4892997;29;20305;-70
2023/05/25 06:13:10;;;;;;;11.32;4.55;;;13.20;92.10;;;;;;4928112;29;20032;-71
2023/05/25 06:15:36;;;;;;;13.45;3.92;;;13.10;92.00;;;;;;4911341;29;20225;-71
2023/05/25 06:18:07;;;;;;;13.82;4.88;;;13.10;91.70;;;;;;4910743;29;20027;-71
2023/05/25 06:20:34;;;;;;;11.07;4.38;;;13.10;92.10;;;;;;4911277;29;20098;-71
2023/05/25 06:23:00;;;;;;;11.43;4.35;;;13.10;91.70;;;;;;4913607;29;20096;-71
2023/05/25 06:25:26;;;;;;;13.35;4.82;;;13.10;92.20;;;;;;4890358;29;20359;-70
2023/05/25 06:27:53;;;;;;;15.23;5.10;;;13.10;92.40;;;;;;4889465;29;20374;-69
2023/05/25 06:30:20;;;;;;;13.55;4.53;;;13.20;92.30;;;;;;4903389;29;20039;-71
2023/05/25 06:32:45;;;;;;;17.50;4.22;;;13.20;92.30;;;;;;4892289;29;20039;-70
2023/05/25 06:35:18;;;;;;;10.98;4.80;;;13.30;92.10;;;;;;4908071;29;20039;-71
2023/05/25 06:37:48;;;;;;;8.75;4.18;;;13.40;92.20;;;;;;4889245;29;20053;-71
2023/05/25 06:40:15;;;;;;;13.95;4.90;;;13.50;91.90;;;;;;4886762;29;20292;-72
2023/05/25 06:42:41;;;;;;;12.75;4.55;;;13.50;92.10;;;;;;4889263;29;20077;-71
2023/05/25 06:45:25;;;;;;;12.85;4.20;;;13.50;91.90;;;;;;4888462;29;20219;-70
2023/05/25 06:47:51;;;;;;;12.68;4.53;;;13.40;92.00;;;;;;4908727;29;20036;-70
2023/05/25 06:50:18;;;;;;;12.00;4.80;;;13.40;92.20;;;;;;4907380;29;20037;-73
2023/05/25 06:52:43;;;;;;;16.58;4.50;;;13.30;92.20;;;;;;4913482;29;20338;-70
2023/05/25 06:55:09;;;;;;;9.85;4.57;;;13.50;92.30;;;;;;4907838;29;20040;-71
2023/05/25 06:57:35;;;;;;;12.23;5.05;;;13.70;92.00;;;;;;4900303;29;20044;-70
2023/05/25 07:00:01;;;;;;;14.23;4.65;;;14.00;91.80;;;;;;4907604;29;20125;-69
2023/05/25 07:02:27;;;;;;;11.60;4.20;;;14.20;91.40;;;;;;4890714;29;20055;-69
2023/05/25 07:04:53;;;;;;;12.68;4.55;;;14.30;91.30;;;;;;4925206;29;20032;-70
2023/05/25 07:07:19;;;;;;;13.45;4.63;;;14.60;91.00;;;;;;4926505;29;20099;-70
2023/05/25 07:09:45;;;;;;;15.18;5.00;;;14.90;90.80;;;;;;4920283;29;20306;-70
2023/05/25 07:12:10;;;;;;;11.20;4.63;;;15.10;90.70;;;;;;4926719;29;20066;-70
2023/05/25 07:14:36;;;;;;;11.30;5.20;;;15.30;90.00;;;;;;4922886;29;20322;-69
2023/05/25 07:17:02;;;;;;;13.65;4.30;;;15.60;89.60;;;;;;4907864;29;20028;-69
2023/05/25 07:19:28;;;;;;;12.20;4.97;;;15.60;89.30;;;;;;4907366;29;20072;-70
2023/05/25 07:21:53;;;;;;;11.15;4.75;;;15.60;88.30;;;;;;4907860;29;20139;-69
2023/05/25 07:24:19;;;;;;;14.93;6.20;;;15.60;88.70;;;;;;4907441;29;20068;-69
2023/05/25 07:26:45;;;;;;;26.52;15.35;;;15.60;89.00;;;;;;4907872;29;20039;-69
2023/05/25 07:29:11;;;;;;;23.95;9.90;;;15.80;88.40;;;;;;4907701;29;20096;-69
2023/05/25 07:31:37;;;;;;;17.75;7.50;;;15.80;88.30;;;;;;4907590;29;20040;-70
2023/05/25 07:34:03;;;;;;;15.40;5.68;;;15.70;88.60;;;;;;4907850;29;20227;-69
2023/05/25 07:36:28;;;;;;;19.00;5.90;;;15.80;88.60;;;;;;4907342;29;20021;-70
2023/05/25 07:38:54;;;;;;;17.92;5.90;;;15.90;88.70;;;;;;4907789;29;20062;-70
2023/05/25 07:41:20;;;;;;;11.65;4.63;;;16.10;88.10;;;;;;4907008;29;20125;-69
2023/05/25 07:43:46;;;;;;;22.92;11.15;;;16.20;87.60;;;;;;4908191;29;20033;-69
2023/05/25 07:46:11;;;;;;;15.57;7.45;;;16.30;87.10;;;;;;4907056;29;20037;-70
2023/05/25 07:48:37;;;;;;;17.60;6.85;;;16.30;87.40;;;;;;4896776;29;20048;-70
2023/05/25 07:51:03;;;;;;;11.23;4.78;;;16.40;87.50;;;;;;4918757;29;20052;-69
2023/05/25 07:53:29;;;;;;;19.08;6.78;;;16.50;87.20;;;;;;4877532;29;20053;-69
2023/05/25 07:55:55;;;;;;;15.80;6.20;;;16.60;87.20;;;;;;4888858;29;20312;-70
2023/05/25 07:58:20;;;;;;;14.07;5.65;;;17.00;86.50;;;;;;4888212;29;20281;-70
2023/05/25 08:00:48;;;;;;;16.85;6.13;;;17.20;86.10;;;;;;4890744;29;20048;-71
2023/05/25 08:03:14;;;;;;;17.57;6.77;;;17.30;85.50;;;;;;4888504;29;20079;-71
2023/05/25 08:05:39;;;;;;;12.82;4.50;;;17.40;84.50;;;;;;4869243;29;20438;-75
2023/05/25 08:08:05;;;;;;;14.25;5.68;;;17.40;85.00;;;;;;4880743;29;20033;-72
2023/05/25 08:10:31;;;;;;;16.63;5.82;;;17.20;85.30;;;;;;4891434;29;20055;-71
2023/05/25 08:12:57;;;;;;;11.07;4.97;;;17.30;85.80;;;;;;4888737;29;20378;-72
2023/05/25 08:15:25;;;;;;;11.98;5.03;;;17.40;85.50;;;;;;4888133;29;20586;-70
2023/05/25 08:17:51;;;;;;;13.38;5.35;;;17.50;85.20;;;;;;4897815;29;20314;-70
2023/05/25 08:20:16;;;;;;;12.95;4.82;;;17.40;84.90;;;;;;4906511;29;20016;-70
2023/05/25 08:22:42;;;;;;;17.10;5.05;;;17.30;85.10;;;;;;4907410;29;20040;-72
2023/05/25 08:25:08;;;;;;;11.10;4.82;;;17.30;85.90;;;;;;4906877;29;20271;-70
2023/05/25 08:27:35;;;;;;;14.15;5.18;;;17.20;86.30;;;;;;4890400;29;20093;-70
2023/05/25 08:30:00;;;;;;;15.63;5.03;;;17.20;86.70;;;;;;4892084;29;20116;-70
2023/05/25 08:32:26;;;;;;;11.85;5.00;;;17.10;86.80;;;;;;4891361;29;20037;-70
2023/05/25 08:34:52;;;;;;;13.52;4.88;;;17.10;87.00;;;;;;4888254;29;20029;-70
2023/05/25 08:37:20;;;;;;;14.27;5.22;;;17.20;87.10;;;;;;4891793;29;20040;-70
2023/05/25 08:39:45;;;;;;;14.07;4.82;;;17.40;87.60;;;;;;4891879;29;20043;-69
2023/05/25 08:42:11;;;;;;;11.60;4.80;;;17.60;86.60;;;;;;4891673;29;20036;-70
2023/05/25 08:44:38;;;;;;;11.50;4.53;;;18.00;85.80;;;;;;4892174;29;20024;-70
2023/05/25 08:47:09;;;;;;;10.98;4.85;;;18.30;85.30;;;;;;4889570;29;20125;-70
2023/05/25 08:49:37;;;;;;;10.60;4.70;;;18.70;83.80;;;;;;4887354;29;20051;-70
2023/05/25 08:52:04;;;;;;;9.38;4.35;;;18.90;82.60;;;;;;4891768;29;20047;-71
2023/05/25 08:54:35;;;;;;;9.60;4.43;;;18.80;83.40;;;;;;4891646;29;20108;-71
2023/05/25 08:57:04;;;;;;;11.20;5.15;;;18.90;83.50;;;;;;4899433;29;20039;-70
2023/05/25 08:59:41;;;;;;;10.13;4.65;;;18.90;83.30;;;;;;4909552;29;20283;-70
2023/05/25 09:02:29;;;;;;;12.45;5.75;;;18.80;82.80;;;;;;4890691;29;20045;-70
2023/05/25 09:04:56;;;;;;;12.13;5.13;;;18.80;83.10;;;;;;4891557;29;20311;-69
2023/05/25 09:07:23;;;;;;;17.33;5.28;;;18.70;83.10;;;;;;4891079;29;20037;-69
2023/05/25 09:09:50;;;;;;;21.60;5.28;;;18.70;84.20;;;;;;4895021;29;20279;-70
2023/05/25 09:12:17;;;;;;;24.45;5.95;;;18.70;84.30;;;;;;4909844;29;20028;-70
2023/05/25 09:14:46;;;;;;;16.02;4.90;;;18.90;83.80;;;;;;4910357;29;20103;-70
2023/05/25 09:17:14;;;;;;;14.48;5.32;;;19.30;83.00;;;;;;4910150;29;20207;-69
2023/05/25 09:19:40;;;;;;;11.00;4.70;;;19.50;82.30;;;;;;4908356;29;20064;-70
2023/05/25 09:22:06;;;;;;;15.88;5.00;;;19.70;81.50;;;;;;4890824;29;20033;-70
2023/05/25 09:24:33;;;;;;;16.50;5.00;;;20.10;81.10;;;;;;4891071;29;20331;-69
2023/05/25 09:26:59;;;;;;;11.13;4.53;;;20.50;79.90;;;;;;4899542;29;20023;-68
2023/05/25 09:29:25;;;;;;;10.00;4.93;;;20.70;79.40;;;;;;4909717;29;20341;-70
2023/05/25 09:31:52;;;;;;;11.02;4.35;;;20.70;78.60;;;;;;4893541;29;20048;-69
2023/05/25 09:34:19;;;;;;;22.17;5.20;;;20.80;79.00;;;;;;4909374;29;20342;-70
2023/05/25 09:36:45;;;;;;;14.93;5.13;;;21.00;78.30;;;;;;4893457;29;20217;-69
2023/05/25 09:39:12;;;;;;;9.93;4.10;;;21.00;77.90;;;;;;4909019;29;20024;-69
2023/05/25 09:41:40;;;;;;;19.90;5.72;;;20.90;78.50;;;;;;4909987;29;20044;-70
2023/05/25 09:44:06;;;;;;;13.55;4.00;;;21.20;78.20;;;;;;4899126;29;20037;-71
2023/05/25 09:46:35;;;;;;;12.45;4.38;;;21.50;77.90;;;;;;4900927;29;20042;-70
2023/05/25 09:49:07;;;;;;;14.43;6.60;;;21.70;78.00;;;;;;4883203;29;20033;-71
2023/05/25 09:51:35;;;;;;;15.73;5.03;;;21.80;76.70;;;;;;4891055;29;20044;-71
2023/05/25 09:54:01;;;;;;;12.90;4.75;;;22.20;75.50;;;;;;4901318;29;20039;-69
2023/05/25 09:56:30;;;;;;;9.25;4.45;;;22.60;74.60;;;;;;4899960;29;20092;-69
2023/05/25 09:58:57;;;;;;;11.25;4.43;;;22.60;73.50;;;;;;4918395;29;20032;-72
2023/05/25 10:01:23;;;;;;;10.77;4.38;;;22.70;74.30;;;;;;4903658;29;20032;-68
2023/05/25 10:03:55;;;;;;;11.70;4.10;;;22.40;74.50;;;;;;4898190;29;20437;-73
2023/05/25 10:06:22;;;;;;;12.60;4.63;;;22.20;74.00;;;;;;4890044;29;20104;-75
2023/05/25 10:08:49;;;;;;;10.20;4.45;;;22.10;75.50;;;;;;4891868;29;20048;-74
2023/05/25 10:11:15;;;;;;;13.48;5.85;;;22.20;75.10;;;;;;4894266;29;20035;-75
2023/05/25 10:13:45;;;;;;;12.93;4.68;;;22.20;74.70;;;;;;4890793;29;20033;-73
2023/05/25 10:16:16;;;;;;;8.32;4.00;;;22.20;75.00;;;;;;4889946;29;20037;-72
2023/05/25 10:19:11;;;;;;;7.65;4.13;;;22.20;74.60;;;;;;4892014;29;20025;-70
2023/05/25 10:21:38;;;;;;;10.45;4.75;;;22.50;74.40;;;;;;4890325;29;20044;-74
2023/05/25 10:24:11;;;;;;;10.27;4.35;;;22.80;74.00;;;;;;4890106;29;20032;-69
2023/05/25 10:26:41;;;;;;;15.00;5.40;;;22.90;73.60;;;;;;4890475;29;20318;-70
2023/05/25 10:29:07;;;;;;;10.85;4.50;;;22.70;73.60;;;;;;4870168;29;20025;-70
2023/05/25 10:31:36;;;;;;;10.77;5.13;;;22.90;73.40;;;;;;4888852;29;20065;-70
2023/05/25 10:34:02;;;;;;;11.23;4.72;;;23.20;73.20;;;;;;4890236;29;20048;-69
2023/05/25 10:36:29;;;;;;;9.13;3.90;;;23.30;73.30;;;;;;4889665;29;20040;-71
2023/05/25 10:38:55;;;;;;;8.10;3.88;;;23.40;72.70;;;;;;4890054;29;20048;-72
2023/05/25 10:41:21;;;;;;;8.93;4.32;;;23.90;71.50;;;;;;4889576;29;20048;-70
2023/05/25 10:43:48;;;;;;;8.60;4.22;;;24.30;70.80;;;;;;4889670;29;20092;-70
2023/05/25 10:46:15;;;;;;;11.75;4.35;;;24.60;70.40;;;;;;4898988;29;20333;-70
2023/05/25 10:48:48;;;;;;;8.00;4.13;;;24.30;70.50;;;;;;4879153;29;20040;-70
2023/05/25 10:51:14;;;;;;;9.52;3.80;;;24.20;70.50;;;;;;4888433;29;20204;-70
2023/05/25 10:53:58;;;;;;;8.55;4.40;;;24.10;70.80;;;;;;4889607;29;20051;-70
2023/05/25 10:56:25;;;;;;;10.57;3.90;;;24.00;70.70;;;;;;4891254;29;20264;-70
2023/05/25 10:58:52;;;;;;;8.52;3.92;;;24.30;70.70;;;;;;4908183;29;20108;-69
2023/05/25 11:01:18;;;;;;;14.85;3.78;;;24.50;70.00;;;;;;4893296;29;20310;-70
2023/05/25 11:03:43;;;;;;;17.67;4.10;;;24.50;70.20;;;;;;4889146;29;20109;-69
2023/05/25 11:06:16;;;;;;;10.00;4.25;;;24.90;70.30;;;;;;4888745;29;20040;-71
2023/05/25 11:08:55;;;;;;;10.15;4.25;;;25.30;69.10;;;;;;4889523;29;20041;-69
2023/05/25 11:11:41;;;;;;;14.90;4.90;;;24.90;68.90;;;;;;4903588;29;20040;-69
2023/05/25 11:14:36;;;;;;;10.10;4.07;;;24.70;69.10;;;;;;4907217;29;20202;-70
2023/05/25 11:17:17;;;;;;;7.47;3.50;;;24.30;70.20;;;;;;4906264;29;20036;-76
2023/05/25 11:19:47;;;;;;;13.77;4.50;;;24.50;69.70;;;;;;4908351;29;20049;-70
2023/05/25 11:22:34;;;;;;;18.23;4.75;;;24.80;69.90;;;;;;4907552;29;20127;-70
2023/05/25 11:25:21;;;;;;;22.05;4.65;;;25.00;68.50;;;;;;4871060;29;20055;-69
2023/05/25 11:27:47;;;;;;;17.30;4.32;;;25.40;68.50;;;;;;4879462;29;20073;-69
2023/05/25 11:30:16;;;;;;;12.13;3.58;;;25.90;67.60;;;;;;4903649;29;20314;-70
2023/05/25 11:32:49;;;;;;;8.68;3.53;;;26.20;67.80;;;;;;4900585;29;20033;-71
2023/05/25 11:35:15;;;;;;;13.27;3.38;;;26.20;66.80;;;;;;4888573;29;20048;-71
2023/05/25 11:37:48;;;;;;;9.70;3.47;;;26.20;66.90;;;;;;4889001;29;20096;-71
2023/05/25 11:40:14;;;;;;;16.30;3.95;;;26.00;66.20;;;;;;4888710;29;20163;-71
2023/05/25 11:42:41;;;;;;;13.48;3.38;;;25.90;66.40;;;;;;4880233;29;20040;-71
2023/05/25 11:45:10;;;;;;;21.20;4.82;;;26.40;66.50;;;;;;4906982;29;20032;-72
2023/05/25 11:47:36;;;;;;;12.02;3.88;;;26.90;65.50;;;;;;4901525;29;20033;-71
2023/05/25 11:50:02;;;;;;;18.80;4.07;;;26.70;65.00;;;;;;4872815;29;20026;-72
2023/05/25 11:52:27;;;;;;;10.38;4.03;;;26.80;65.30;;;;;;4888116;29;20037;-71
2023/05/25 11:54:53;;;;;;;16.10;4.50;;;26.50;65.50;;;;;;4872197;29;20048;-69
2023/05/25 11:57:23;;;;;;;8.30;3.42;;;27.50;65.70;;;;;;4894813;29;20024;-71
2023/05/25 11:59:59;;;;;;;10.30;3.63;;;28.90;62.60;;;;;;4883156;29;20045;-71
2023/05/25 12:02:25;;;;;;;7.25;3.42;;;29.10;61.10;;;;;;4906183;29;20120;-71
2023/05/25 12:05:00;;;;;;;9.73;3.70;;;28.70;61.30;;;;;;4902330;29;20036;-69
2023/05/25 12:07:27;;;;;;;7.88;3.40;;;28.30;62.30;;;;;;4886631;29;20074;-71
2023/05/25 12:10:11;;;;;;;10.02;3.45;;;27.40;63.00;;;;;;4888825;29;20032;-70
2023/05/25 12:12:47;;;;;;;7.28;3.70;;;27.10;63.80;;;;;;4890924;29;20049;-70
2023/05/25 12:15:15;;;;;;;8.35;3.80;;;27.00;63.90;;;;;;4907079;29;20052;-71
2023/05/25 12:17:42;;;;;;;10.20;3.95;;;26.50;64.60;;;;;;4907528;29;20342;-71
2023/05/25 12:20:10;;;;;;;10.40;3.80;;;26.20;65.90;;;;;;4906930;29;20044;-70
2023/05/25 12:22:38;;;;;;;7.35;3.30;;;26.00;65.40;;;;;;4907137;29;20052;-71
2023/05/25 12:25:05;;;;;;;9.95;3.80;;;25.90;66.00;;;;;;4907472;29;20028;-71
2023/05/25 12:27:31;;;;;;;12.52;3.50;;;26.00;65.20;;;;;;4907086;29;20076;-71
2023/05/25 12:29:58;;;;;;;8.93;4.13;;;25.90;65.30;;;;;;4897744;29;20222;-71
2023/05/25 12:32:23;;;;;;;10.80;4.72;;;26.40;65.20;;;;;;4888111;29;20061;-71
2023/05/25 12:34:49;;;;;;;10.50;3.80;;;26.80;64.30;;;;;;4888556;29;20045;-72
2023/05/25 12:37:19;;;;;;;14.88;3.92;;;27.20;63.50;;;;;;4887691;29;20037;-71
2023/05/25 12:39:46;;;;;;;8.05;3.80;;;26.90;63.80;;;;;;4888548;29;20231;-71
2023/05/25 12:42:16;;;;;;;8.48;3.55;;;26.60;64.20;;;;;;4888162;29;20052;-71
2023/05/25 12:44:43;;;;;;;8.13;3.58;;;26.90;63.80;;;;;;4888378;29;20041;-72
2023/05/25 12:47:19;;;;;;;8.80;3.30;;;27.80;62.50;;;;;;4879410;29;20022;-71
2023/05/25 12:49:52;;;;;;;8.10;3.58;;;28.50;61.90;;;;;;4888573;29;20025;-73
2023/05/25 12:52:35;;;;;;;7.43;3.65;;;29.40;60.40;;;;;;4887638;29;20235;-71
2023/05/25 12:55:19;;;;;;;8.98;3.70;;;29.20;60.30;;;;;;4888556;29;20037;-75
2023/05/25 12:57:51;;;;;;;8.00;3.50;;;29.10;60.00;;;;;;4876046;29;20033;-73
2023/05/25 13:00:30;;;;;;;10.18;3.13;;;29.70;59.80;;;;;;4888034;29;20033;-74
2023/05/25 13:02:56;;;;;;;11.82;3.85;;;29.60;59.80;;;;;;4906475;29;20052;-70
2023/05/25 13:05:24;;;;;;;9.95;3.42;;;28.80;60.50;;;;;;4906444;29;20040;-69
2023/05/25 13:07:52;;;;;;;8.05;3.15;;;28.90;60.40;;;;;;4907162;29;20334;-71
2023/05/25 13:10:18;;;;;;;7.00;3.45;;;28.70;60.50;;;;;;4895763;29;20218;-71
2023/05/25 13:12:48;;;;;;;8.82;3.60;;;28.30;60.70;;;;;;4888239;29;20033;-69
2023/05/25 13:15:17;;;;;;;8.02;3.97;;;28.20;61.00;;;;;;4893553;29;20082;-70
2023/05/25 13:17:43;;;;;;;7.93;3.45;;;28.90;60.20;;;;;;4891628;29;20366;-69
2023/05/25 13:20:17;;;;;;;9.75;3.53;;;29.20;60.00;;;;;;4903962;29;20100;-69
2023/05/25 13:22:44;;;;;;;10.10;3.50;;;30.90;59.00;;;;;;4910044;29;20084;-69
2023/05/25 13:25:12;;;;;;;9.60;3.53;;;31.80;57.30;;;;;;4909696;29;20032;-70
2023/05/25 13:27:43;;;;;;;7.00;3.15;;;31.90;56.70;;;;;;4910482;29;20124;-69
2023/05/25 13:30:10;;;;;;;9.00;3.67;;;32.20;56.10;;;;;;4909419;29;20041;-70
2023/05/25 13:32:36;;;;;;;9.43;3.58;;;32.70;56.00;;;;;;4909848;29;20040;-72
2023/05/25 13:35:03;;;;;;;7.88;3.17;;;33.00;55.50;;;;;;4909776;29;20042;-70
2023/05/25 13:37:30;;;;;;;9.93;3.75;;;33.20;55.20;;;;;;4909753;29;20092;-70
2023/05/25 13:39:57;;;;;;;16.65;3.50;;;32.60;55.00;;;;;;4909914;29;20076;-68
2023/05/25 13:42:23;;;;;;;7.80;3.50;;;32.00;56.00;;;;;;4909551;29;20112;-70
2023/05/25 13:44:49;;;;;;;8.90;3.33;;;31.20;56.50;;;;;;4910013;29;20362;-71
2023/05/25 13:47:15;;;;;;;10.23;3.33;;;30.80;60.60;;;;;;4888357;29;20044;-69
2023/05/25 13:49:40;;;;;;;11.10;3.17;;;30.50;57.60;;;;;;4887346;29;20037;-68
2023/05/25 13:52:07;;;;;;;9.15;3.30;;;32.40;56.00;;;;;;4890705;29;20306;-71
2023/05/25 13:54:33;;;;;;;8.02;3.00;;;32.20;55.50;;;;;;4890639;29;20223;-70
2023/05/25 13:56:58;;;;;;;7.95;3.10;;;32.40;55.10;;;;;;4898335;29;20037;-69
2023/05/25 13:59:24;;;;;;;9.40;3.35;;;32.50;55.10;;;;;;4909319;29;20036;-71
2023/05/25 14:01:50;;;;;;;9.30;2.88;;;33.20;54.50;;;;;;4877701;29;20337;-70
2023/05/25 14:04:16;;;;;;;7.22;3.10;;;34.50;53.70;;;;;;4890533;29;20303;-71
2023/05/25 14:06:42;;;;;;;9.23;3.08;;;34.90;52.60;;;;;;4890749;29;20037;-69
2023/05/25 14:09:08;;;;;;;8.05;2.95;;;34.90;52.50;;;;;;4890347;29;20358;-71
2023/05/25 14:11:38;;;;;;;8.88;3.05;;;34.70;52.60;;;;;;4907941;29;20115;-71
2023/05/25 14:14:07;;;;;;;8.45;3.20;;;33.30;53.10;;;;;;4909353;29;20032;-71
2023/05/25 14:16:37;;;;;;;9.90;3.78;;;33.10;53.50;;;;;;4909130;29;20092;-69
2023/05/25 14:19:03;;;;;;;8.70;3.55;;;32.10;54.40;;;;;;4894723;29;20215;-71
2023/05/25 14:21:30;;;;;;;9.20;3.05;;;31.60;55.20;;;;;;4889853;29;20045;-69
2023/05/25 14:23:58;;;;;;;7.72;2.80;;;31.30;55.30;;;;;;4890554;29;20063;-70
2023/05/25 14:26:27;;;;;;;7.72;3.28;;;31.60;55.20;;;;;;4889797;29;20045;-70
2023/05/25 14:28:53;;;;;;;12.35;3.60;;;31.90;54.90;;;;;;4890303;29;20069;-69
2023/05/25 14:31:19;;;;;;;10.20;3.20;;;31.80;55.20;;;;;;4889765;29;20100;-70
2023/05/25 14:33:45;;;;;;;5.90;3.00;;;32.10;54.90;;;;;;4890107;29;20029;-71
2023/05/25 14:36:11;;;;;;;7.72;3.33;;;33.90;53.40;;;;;;4889902;29;20368;-70
2023/05/25 14:38:36;;;;;;;6.47;2.92;;;34.20;53.20;;;;;;4890302;29;20083;-70
2023/05/25 14:41:02;;;;;;;8.57;3.00;;;34.40;52.60;;;;;;4890294;29;20219;-70
2023/05/25 14:43:29;;;;;;;8.70;2.80;;;33.80;52.80;;;;;;4870229;29;20319;-70
2023/05/25 14:45:55;;;;;;;7.90;2.97;;;33.70;53.20;;;;;;4882159;29;20330;-70
2023/05/25 14:48:24;;;;;;;8.07;3.13;;;33.30;52.90;;;;;;4873016;29;20045;-71
2023/05/25 14:50:51;;;;;;;8.82;3.25;;;33.00;53.40;;;;;;4889712;29;20048;-71
2023/05/25 14:53:17;;;;;;;6.90;2.92;;;34.20;52.50;;;;;;4889413;29;20045;-71
2023/05/25 14:55:43;;;;;;;6.82;2.88;;;36.00;51.30;;;;;;4889458;29;20025;-71
2023/05/25 14:58:09;;;;;;;5.50;2.30;;;37.30;49.80;;;;;;4889126;29;20311;-71
2023/05/25 15:00:35;;;;;;;7.60;2.72;;;38.30;49.40;;;;;;4890339;29;20342;-71
2023/05/25 15:03:01;;;;;;;6.32;2.42;;;38.60;48.00;;;;;;4890189;29;20048;-71
2023/05/25 15:05:27;;;;;;;8.43;3.47;;;39.20;47.00;;;;;;4890283;29;20040;-71
2023/05/25 15:07:52;;;;;;;7.43;3.08;;;38.40;47.80;;;;;;4890564;29;20037;-71
2023/05/25 15:10:18;;;;;;;9.90;3.20;;;37.30;48.50;;;;;;4895668;29;20087;-71
2023/05/25 15:12:44;;;;;;;7.40;4.35;;;36.60;49.20;;;;;;4908027;29;20104;-71
2023/05/25 15:15:10;;;;;;;7.32;3.35;;;36.00;49.60;;;;;;4907699;29;20044;-71
2023/05/25 15:17:36;;;;;;;8.48;2.97;;;35.60;49.80;;;;;;4907957;29;20041;-70
2023/05/25 15:20:02;;;;;;;6.80;3.22;;;35.10;50.10;;;;;;4908136;29;20020;-70
2023/05/25 15:22:27;;;;;;;7.00;3.30;;;34.30;50.50;;;;;;4907635;29;20063;-70
2023/05/25 15:24:53;;;;;;;8.23;3.53;;;33.60;51.60;;;;;;4907783;29;20043;-71
2023/05/25 15:27:19;;;;;;;7.85;3.03;;;33.50;51.70;;;;;;4907691;29;20132;-71
2023/05/25 15:29:44;;;;;;;7.82;3.35;;;34.90;51.00;;;;;;4908117;29;20256;-70
2023/05/25 15:32:12;;;;;;;6.65;2.60;;;36.40;49.20;;;;;;4907236;29;20036;-72
2023/05/25 15:34:39;;;;;;;7.60;3.00;;;36.60;49.10;;;;;;4907762;29;20032;-70
2023/05/25 15:37:04;;;;;;;7.45;2.97;;;36.00;48.90;;;;;;4907368;29;20032;-70
2023/05/25 15:39:30;;;;;;;8.70;3.10;;;34.90;49.80;;;;;;4907327;29;20287;-70
2023/05/25 15:41:56;;;;;;;5.63;3.00;;;35.50;49.90;;;;;;4908223;29;20059;-71
2023/05/25 15:44:22;;;;;;;5.50;2.83;;;36.60;48.90;;;;;;4906956;29;20027;-71
2023/05/25 15:46:47;;;;;;;6.22;2.78;;;37.70;48.00;;;;;;4893998;29;20323;-71
2023/05/25 15:49:13;;;;;;;7.20;2.97;;;38.60;47.20;;;;;;4881725;29;20035;-71
2023/05/25 15:51:43;;;;;;;6.10;2.60;;;39.30;47.20;;;;;;4889077;29;20025;-71
2023/05/25 15:54:11;;;;;;;5.68;2.70;;;39.50;47.20;;;;;;4888734;29;20145;-71
2023/05/25 15:56:37;;;;;;;5.32;2.58;;;39.00;46.10;;;;;;4888802;29;20028;-70
2023/05/25 15:59:04;;;;;;;7.70;2.83;;;38.80;46.50;;;;;;4888458;29;20035;-70
2023/05/25 16:01:35;;;;;;;6.55;3.10;;;39.30;46.00;;;;;;4888155;29;20044;-71
2023/05/25 16:04:02;;;;;;;8.13;2.67;;;38.20;46.40;;;;;;4868875;29;20061;-70
2023/05/25 16:06:29;;;;;;;6.40;2.30;;;38.50;47.20;;;;;;4884526;29;20056;-72
2023/05/25 16:08:57;;;;;;;5.35;2.45;;;39.10;46.10;;;;;;4888449;29;20045;-70
2023/05/25 16:11:27;;;;;;;5.63;2.50;;;39.50;45.80;;;;;;4903066;29;20047;-70
2023/05/25 16:13:53;;;;;;;5.82;2.72;;;39.80;45.50;;;;;;4907115;29;20108;-70
2023/05/25 16:16:18;;;;;;;5.13;2.67;;;39.90;45.20;;;;;;4906867;29;20028;-71
2023/05/25 16:18:45;;;;;;;6.85;2.70;;;39.30;45.40;;;;;;4907129;29;20056;-70
2023/05/25 16:21:11;;;;;;;4.72;2.45;;;38.90;45.90;;;;;;4906834;29;20056;-70
2023/05/25 16:23:38;;;;;;;7.55;3.08;;;38.30;46.20;;;;;;4906819;29;20213;-70
2023/05/25 16:26:07;;;;;;;6.53;2.63;;;38.20;46.20;;;;;;4907195;29;20089;-70
2023/05/25 16:28:33;;;;;;;7.45;2.70;;;38.10;46.00;;;;;;4906354;29;20087;-70
2023/05/25 16:30:58;;;;;;;5.90;2.40;;;38.10;46.00;;;;;;4906731;29;20064;-70
2023/05/25 16:33:27;;;;;;;5.40;2.80;;;37.90;46.30;;;;;;4906179;29;20091;-69
2023/05/25 16:35:52;;;;;;;9.75;3.47;;;37.70;46.30;;;;;;4906820;29;20056;-72
2023/05/25 16:38:19;;;;;;;6.22;2.85;;;37.30;46.40;;;;;;4906101;29;20032;-72
2023/05/25 16:40:44;;;;;;;5.75;3.00;;;37.00;47.00;;;;;;4906360;29;20044;-70
2023/05/25 16:43:10;;;;;;;5.78;2.90;;;36.10;47.70;;;;;;4906674;29;20263;-71
2023/05/25 16:45:36;;;;;;;7.47;2.85;;;35.00;48.50;;;;;;4906124;29;20318;-71
2023/05/25 16:48:01;;;;;;;6.40;2.72;;;33.80;49.60;;;;;;4877363;29;20211;-71
2023/05/25 16:50:27;;;;;;;5.95;3.33;;;32.60;50.70;;;;;;4890979;29;20072;-71
2023/05/25 16:52:53;;;;;;;6.40;3.38;;;31.60;51.80;;;;;;4891449;29;20072;-71
2023/05/25 16:55:20;;;;;;;7.18;2.85;;;30.90;53.10;;;;;;4890758;29;20045;-71
2023/05/25 16:57:45;;;;;;;6.65;2.92;;;30.60;53.10;;;;;;4891061;29;20041;-71
2023/05/25 17:00:12;;;;;;;7.18;3.08;;;30.40;53.20;;;;;;4871252;29;20068;-71
2023/05/25 17:02:38;;;;;;;8.63;3.47;;;31.20;52.60;;;;;;4885341;29;20120;-71
2023/05/25 17:05:05;;;;;;;4.85;2.85;;;32.10;51.60;;;;;;4891024;29;20037;-73
2023/05/25 17:07:34;;;;;;;6.78;3.22;;;33.00;50.50;;;;;;4890407;29;20085;-72
2023/05/25 17:10:00;;;;;;;5.70;2.90;;;34.10;49.40;;;;;;4895954;29;20120;-71
2023/05/25 17:12:26;;;;;;;7.15;2.75;;;34.80;49.10;;;;;;4909321;29;20083;-71
2023/05/25 17:14:52;;;;;;;7.00;3.10;;;34.50;48.60;;;;;;4909888;29;20033;-72
2023/05/25 17:17:18;;;;;;;5.55;3.00;;;34.90;48.90;;;;;;4909183;29;20099;-71
2023/05/25 17:19:43;;;;;;;4.90;2.47;;;34.90;48.40;;;;;;4892748;29;20033;-72
2023/05/25 17:22:09;;;;;;;5.97;3.30;;;35.30;48.30;;;;;;4893285;29;20085;-71
2023/05/25 17:24:35;;;;;;;8.48;2.58;;;35.40;48.00;;;;;;4909067;29;20043;-71
2023/05/25 17:27:01;;;;;;;6.70;3.10;;;35.20;48.30;;;;;;4909353;29;20120;-73
2023/05/25 17:29:26;;;;;;;6.38;2.78;;;34.90;48.60;;;;;;4909006;29;20051;-71
2023/05/25 17:31:52;;;;;;;6.10;2.90;;;34.50;48.90;;;;;;4909393;29;20334;-71
2023/05/25 17:34:18;;;;;;;5.32;2.88;;;34.50;49.10;;;;;;4908850;29;20036;-71
2023/05/25 17:36:44;;;;;;;6.55;2.83;;;34.40;49.70;;;;;;4909208;29;20036;-72
2023/05/25 17:39:10;;;;;;;6.55;2.72;;;34.50;49.20;;;;;;4909298;29;20036;-71
2023/05/25 17:41:36;;;;;;;6.30;2.83;;;34.30;49.40;;;;;;4908560;29;20029;-72
2023/05/25 17:44:01;;;;;;;7.85;3.10;;;34.40;49.20;;;;;;4908558;29;20307;-71